Minnesota Lake, Minnesota
Current Conditions -  °F | °C
As of 5:55 PM on Sunday 21 Dec 2014 (Local Time) from KACQ Reporting Station
Haze Haze  
Wind Chill: -3°   Ceiling: 600
Heat Index:   Visibility: 5mi
Dew Point:   Wind: 15mph
Humidity: 100%   Direction: 180°S
Pressure: 29.75"   Gusts: NA
Location:  43.84°N, 93.83°W
Report Text: KACQ 212355Z AUTO 18013KT 5SM BR OVC006 02/02 A2975 RMK AO2
Loading
Personal Weather Stations






























Interactive Weather Map New forecast layout! Learn more

10-Day Weather Forecast

Advertisements
Track Severe Weather on mobile